createdAt,value
2023-02-11T00:00:42.127Z,35.93
2023-02-11T00:03:10.653Z,37.40
2023-02-11T00:05:38.875Z,41.87
2023-02-11T00:08:06.838Z,36.90
2023-02-11T00:10:34.722Z,35.57
2023-02-11T00:13:02.810Z,38.07
2023-02-11T00:15:30.637Z,36.80
2023-02-11T00:18:00.099Z,36.93
2023-02-11T00:20:28.031Z,33.47
2023-02-11T00:22:55.937Z,38.10
2023-02-11T00:25:23.865Z,33.70
2023-02-11T00:27:51.820Z,32.03
2023-02-11T00:30:19.857Z,33.50
2023-02-11T00:32:47.830Z,35.13
2023-02-11T00:35:17.687Z,37.10
2023-02-11T00:37:45.680Z,29.57
2023-02-11T00:40:16.151Z,32.87
2023-02-11T00:42:44.260Z,33.90
2023-02-11T00:45:12.953Z,34.40
2023-02-11T00:47:40.869Z,32.30
2023-02-11T00:50:08.909Z,35.30
2023-02-11T00:52:38.212Z,32.97
2023-02-11T00:55:06.965Z,34.30
2023-02-11T00:57:34.947Z,33.90
2023-02-11T01:00:02.961Z,31.20
2023-02-11T01:02:33.962Z,34.70
2023-02-11T01:05:02.395Z,34.20
2023-02-11T01:07:30.494Z,32.73
2023-02-11T01:10:00.006Z,32.43
2023-02-11T01:12:30.957Z,30.13
2023-02-11T01:14:59.461Z,30.10
2023-02-11T01:17:27.427Z,31.33
2023-02-11T01:19:55.287Z,32.17
2023-02-11T01:22:23.177Z,33.87
2023-02-11T01:24:51.013Z,32.03
2023-02-11T01:27:20.396Z,28.67
2023-02-11T01:29:48.274Z,30.87
2023-02-11T01:32:16.193Z,35.37
2023-02-11T01:34:44.134Z,32.53
2023-02-11T01:37:16.759Z,29.10
2023-02-11T01:39:44.601Z,27.17
2023-02-11T01:42:17.003Z,31.00
2023-02-11T01:44:46.340Z,27.63
2023-02-11T01:47:14.269Z,26.43
2023-02-11T01:49:45.815Z,33.10
2023-02-11T01:52:19.640Z,33.03
2023-02-11T01:55:09.542Z,27.57
2023-02-11T01:57:40.626Z,31.13
2023-02-11T02:00:14.973Z,31.60
2023-02-11T02:02:50.582Z,35.37
2023-02-11T02:05:28.068Z,32.97
2023-02-11T02:08:04.921Z,30.20
2023-02-11T02:10:36.612Z,29.20
2023-02-11T02:13:04.643Z,30.23
2023-02-11T02:15:36.065Z,29.63
2023-02-11T02:18:30.588Z,33.47
2023-02-11T02:21:46.249Z,32.40
2023-02-11T02:24:38.970Z,32.20
2023-02-11T02:27:28.597Z,34.83
2023-02-11T02:30:19.511Z,26.83
2023-02-11T02:32:58.738Z,30.67
2023-02-11T02:35:35.156Z,26.13
2023-02-11T02:38:08.023Z,30.97
2023-02-11T02:40:41.266Z,27.97
2023-02-11T02:43:12.134Z,30.07
2023-02-11T02:45:40.060Z,29.43
2023-02-11T02:48:26.067Z,29.23
2023-02-11T02:51:04.098Z,27.43
2023-02-11T02:53:43.306Z,26.70
2023-02-11T02:56:19.827Z,24.73
2023-02-11T02:59:03.703Z,30.03
2023-02-11T03:01:42.994Z,28.50
2023-02-11T03:04:22.156Z,28.57
2023-02-11T03:06:56.202Z,29.80
2023-02-11T03:09:29.305Z,30.43
2023-02-11T03:11:57.556Z,26.67
2023-02-11T03:14:29.280Z,29.87
2023-02-11T03:17:02.739Z,31.03
2023-02-11T03:19:37.532Z,26.07
2023-02-11T03:22:14.307Z,28.03
2023-02-11T03:24:43.081Z,30.23
2023-02-11T03:27:19.287Z,27.13
2023-02-11T03:29:54.576Z,23.93
2023-02-11T03:32:28.648Z,27.50
2023-02-11T03:35:02.326Z,29.53
2023-02-11T03:37:34.822Z,27.73
2023-02-11T03:40:06.430Z,31.80
2023-02-11T03:42:39.987Z,27.93
2023-02-11T03:45:11.967Z,28.50
2023-02-11T03:47:43.809Z,26.93
2023-02-11T03:50:15.852Z,32.10
2023-02-11T03:52:45.359Z,28.87
2023-02-11T03:55:17.018Z,27.50
2023-02-11T03:57:45.064Z,28.77
2023-02-11T04:00:14.568Z,27.30
2023-02-11T04:02:43.532Z,26.40
2023-02-11T04:05:14.976Z,27.43
2023-02-11T04:07:43.427Z,27.07
2023-02-11T04:10:12.941Z,32.17
2023-02-11T04:12:40.928Z,32.47
2023-02-11T04:15:09.743Z,29.80
2023-02-11T04:17:37.994Z,28.93
2023-02-11T04:20:06.629Z,27.93
2023-02-11T04:22:37.159Z,30.47
2023-02-11T04:25:06.063Z,29.20
2023-02-11T04:27:33.990Z,32.73
2023-02-11T04:30:02.930Z,31.27
2023-02-11T04:32:30.875Z,28.43
2023-02-11T04:34:58.785Z,30.03
2023-02-11T04:37:26.713Z,31.93
2023-02-11T04:39:56.052Z,31.47
2023-02-11T04:42:24.220Z,32.80
2023-02-11T04:44:52.077Z,32.43
2023-02-11T04:47:20.023Z,31.97
2023-02-11T04:49:47.995Z,32.43
2023-02-11T04:52:15.878Z,34.77
2023-02-11T04:54:43.740Z,32.10
2023-02-11T04:57:13.133Z,32.20
2023-02-11T04:59:41.203Z,34.70
2023-02-11T05:02:09.401Z,33.10
2023-02-11T05:04:37.306Z,32.90
2023-02-11T05:07:05.246Z,37.90
2023-02-11T05:09:33.069Z,40.80
2023-02-11T05:12:00.910Z,34.80
2023-02-11T05:14:30.181Z,35.70
2023-02-11T05:16:58.002Z,39.37
2023-02-11T05:19:25.876Z,37.67
2023-02-11T05:22:02.484Z,39.50
2023-02-11T05:24:32.673Z,38.07
2023-02-11T05:27:00.687Z,39.97
2023-02-11T05:29:30.186Z,39.57
2023-02-11T05:32:00.137Z,35.20
2023-02-11T05:34:28.219Z,35.73
2023-02-11T05:36:56.209Z,39.37
2023-02-11T05:39:24.139Z,48.97
2023-02-11T05:41:51.985Z,35.23
2023-02-11T05:44:19.950Z,40.60
2023-02-11T05:46:49.468Z,41.37
2023-02-11T05:49:17.882Z,39.20
2023-02-11T05:51:45.721Z,36.03
2023-02-11T05:54:13.849Z,36.50
2023-02-11T05:56:44.641Z,37.90
2023-02-11T05:59:14.455Z,38.03
2023-02-11T06:01:43.135Z,35.37
2023-02-11T06:04:12.844Z,41.83
2023-02-11T06:06:40.641Z,43.13
2023-02-11T06:09:08.516Z,39.00
2023-02-11T06:11:36.452Z,37.07
2023-02-11T06:14:04.501Z,41.87
2023-02-11T06:16:32.559Z,40.63
2023-02-11T06:19:00.422Z,39.17
2023-02-11T06:21:42.902Z,34.00
2023-02-11T06:24:11.873Z,40.73
2023-02-11T06:26:39.820Z,34.00
2023-02-11T06:29:07.987Z,39.67
2023-02-11T06:31:36.026Z,36.77
2023-02-11T06:34:05.002Z,39.13
2023-02-11T06:36:34.754Z,42.37
2023-02-11T06:39:02.682Z,38.37
2023-02-11T06:41:30.645Z,41.90
2023-02-11T06:43:58.596Z,39.17
2023-02-11T06:46:26.714Z,36.17
2023-02-11T06:48:54.757Z,40.63
2023-02-11T06:51:22.884Z,39.07
2023-02-11T06:53:52.489Z,36.77
2023-02-11T06:56:23.166Z,41.70
2023-02-11T06:58:54.684Z,41.80
2023-02-11T07:01:22.930Z,40.63
2023-02-11T07:03:51.822Z,45.23
2023-02-11T07:06:22.825Z,37.73
2023-02-11T07:08:52.204Z,46.67
2023-02-11T07:11:24.286Z,39.47
2023-02-11T07:13:52.814Z,40.97
2023-02-11T07:16:20.940Z,45.33
2023-02-11T07:18:49.992Z,43.07
2023-02-11T07:21:20.723Z,40.00
2023-02-11T07:23:49.516Z,41.60
2023-02-11T07:26:21.352Z,46.40
2023-02-11T07:28:49.610Z,52.37
2023-02-11T07:31:20.043Z,39.93
2023-02-11T07:33:48.138Z,41.87
2023-02-11T07:36:17.742Z,43.27
2023-02-11T07:38:45.759Z,43.57
2023-02-11T07:41:15.233Z,42.00
2023-02-11T07:43:45.823Z,41.93
2023-02-11T07:46:15.641Z,40.60
2023-02-11T07:48:43.929Z,45.87
2023-02-11T07:51:13.721Z,44.00
2023-02-11T07:53:41.942Z,44.70
2023-02-11T07:56:11.614Z,45.87
2023-02-11T07:58:42.164Z,44.87
2023-02-11T08:01:14.316Z,42.97
2023-02-11T08:03:43.271Z,51.50
2023-02-11T08:06:13.248Z,47.67
2023-02-11T08:08:41.495Z,51.87
2023-02-11T08:11:10.685Z,43.90
2023-02-11T08:13:39.204Z,48.97
2023-02-11T08:16:08.157Z,48.70
2023-02-11T08:18:37.886Z,47.83
2023-02-11T08:21:06.969Z,46.20
2023-02-11T08:23:35.275Z,46.00
2023-02-11T08:26:03.947Z,47.70
2023-02-11T08:28:33.320Z,48.37
2023-02-11T08:31:07.181Z,42.43
2023-02-11T08:33:35.890Z,51.70
2023-02-11T08:36:10.239Z,44.67
2023-02-11T08:38:38.489Z,52.97
2023-02-11T08:41:06.690Z,49.20
2023-02-11T08:43:35.035Z,46.60
2023-02-11T08:46:03.812Z,49.47
2023-02-11T08:48:31.790Z,50.80
2023-02-11T08:50:59.878Z,47.20
2023-02-11T08:53:29.231Z,43.50
2023-02-11T08:55:58.146Z,52.33
2023-02-11T08:58:26.298Z,50.37
2023-02-11T09:00:54.633Z,48.30
2023-02-11T09:03:22.886Z,48.17
2023-02-11T09:05:53.219Z,47.17
2023-02-11T09:08:21.723Z,49.50
2023-02-11T09:10:51.498Z,49.07
2023-02-11T09:13:19.477Z,47.50
2023-02-11T09:15:47.945Z,49.90
2023-02-11T09:18:15.962Z,46.50
2023-02-11T09:20:43.859Z,51.27
2023-02-11T09:23:12.491Z,44.63
2023-02-11T09:25:41.285Z,50.20
2023-02-11T09:28:12.430Z,46.37
2023-02-11T09:30:43.542Z,49.93
2023-02-11T09:33:11.512Z,47.83
2023-02-11T09:35:39.479Z,47.67
2023-02-11T09:38:07.500Z,51.97
2023-02-11T09:40:35.441Z,46.40
2023-02-11T09:43:08.895Z,48.60
2023-02-11T09:45:38.541Z,47.57
2023-02-11T09:48:14.956Z,50.00
2023-02-11T09:50:45.474Z,49.63
2023-02-11T09:53:19.381Z,52.17
2023-02-11T09:55:49.369Z,50.70
2023-02-11T09:58:27.530Z,50.47
2023-02-11T10:01:06.873Z,51.73
2023-02-11T10:03:54.861Z,50.77
2023-02-11T10:06:37.792Z,51.30
2023-02-11T10:09:19.930Z,48.90
2023-02-11T10:11:59.928Z,51.83
2023-02-11T10:14:46.589Z,49.73
2023-02-11T10:17:27.236Z,51.17
2023-02-11T10:20:07.653Z,55.63
2023-02-11T10:22:42.643Z,53.07
2023-02-11T10:25:21.222Z,47.60
2023-02-11T10:27:49.946Z,41.90
2023-02-11T10:30:26.331Z,50.13
2023-02-11T10:33:01.888Z,55.23
2023-02-11T10:35:29.912Z,45.93
2023-02-11T10:37:58.105Z,53.87
2023-02-11T10:40:28.333Z,52.70
2023-02-11T10:42:59.155Z,57.37
2023-02-11T10:45:31.665Z,55.67
2023-02-11T10:48:02.238Z,49.87
2023-02-11T10:50:33.437Z,49.60
2023-02-11T10:53:14.619Z,51.80
2023-02-11T10:55:51.697Z,53.80
2023-02-11T10:58:26.881Z,57.27
2023-02-11T11:00:56.902Z,54.17
2023-02-11T11:03:28.581Z,52.77
2023-02-11T11:05:58.858Z,47.20
2023-02-11T11:08:40.784Z,50.33
2023-02-11T11:11:10.692Z,54.07
2023-02-11T11:13:40.560Z,56.63
2023-02-11T11:16:18.276Z,51.57
2023-02-11T11:18:49.164Z,51.03
2023-02-11T11:21:21.181Z,50.43
2023-02-11T11:23:52.706Z,57.60
2023-02-11T11:26:21.218Z,57.37
2023-02-11T11:28:57.041Z,50.93
2023-02-11T11:31:27.823Z,59.53
2023-02-11T11:33:59.655Z,56.87
2023-02-11T11:36:35.928Z,60.53
2023-02-11T11:39:18.016Z,51.63
2023-02-11T11:41:52.753Z,50.17
2023-02-11T11:44:27.738Z,53.37
2023-02-11T11:47:21.325Z,50.97
2023-02-11T11:50:06.693Z,55.63
2023-02-11T11:52:41.189Z,57.10
2023-02-11T11:55:18.702Z,56.20
2023-02-11T11:57:46.783Z,54.47
2023-02-11T12:00:21.034Z,58.43
2023-02-11T12:03:36.897Z,52.33
2023-02-11T12:06:22.918Z,54.53
2023-02-11T12:09:02.909Z,58.00
2023-02-11T12:11:39.576Z,60.83
2023-02-11T12:14:25.039Z,51.03
2023-02-11T12:17:02.431Z,55.97
2023-02-11T12:19:54.941Z,55.50
2023-02-11T12:22:35.801Z,52.00
2023-02-11T12:25:21.418Z,53.67
2023-02-11T12:27:57.475Z,61.60
2023-02-11T12:30:45.628Z,57.23
2023-02-11T12:33:24.606Z,60.40
2023-02-11T12:36:00.333Z,57.37
2023-02-11T12:38:44.946Z,55.70
2023-02-11T12:41:43.581Z,63.73
2023-02-11T12:44:20.872Z,57.97
2023-02-11T12:46:55.677Z,57.40
2023-02-11T12:49:37.693Z,56.23
2023-02-11T12:52:32.376Z,56.90
2023-02-11T12:55:05.982Z,58.77
2023-02-11T12:57:37.382Z,61.37
2023-02-11T13:00:14.447Z,53.23
2023-02-11T13:02:48.539Z,56.27
2023-02-11T13:05:26.769Z,51.80
2023-02-11T13:08:01.018Z,59.83
2023-02-11T13:10:35.843Z,64.90
2023-02-11T13:13:18.608Z,52.30
2023-02-11T13:15:51.124Z,49.37
2023-02-11T13:18:28.201Z,60.23
2023-02-11T13:21:03.826Z,56.13
2023-02-11T13:23:41.929Z,58.07
2023-02-11T13:26:18.574Z,59.23
2023-02-11T13:28:53.206Z,52.30
2023-02-11T13:31:21.287Z,60.17
2023-02-11T13:33:49.989Z,49.67
2023-02-11T13:36:20.691Z,53.27
2023-02-11T13:39:07.831Z,55.53
2023-02-11T13:41:40.947Z,58.07
2023-02-11T13:44:27.578Z,57.17
2023-02-11T13:46:59.714Z,57.57
2023-02-11T13:49:32.482Z,50.60
2023-02-11T13:52:02.790Z,50.77
2023-02-11T13:54:35.056Z,54.77
2023-02-11T13:57:33.733Z,60.47
2023-02-11T14:00:09.556Z,59.50
2023-02-11T14:02:56.271Z,54.33
2023-02-11T14:05:47.944Z,58.73
2023-02-11T14:08:49.243Z,54.90
2023-02-11T14:11:44.863Z,58.67
2023-02-11T14:14:21.871Z,56.27
2023-02-11T14:17:31.008Z,59.87
2023-02-11T14:20:00.238Z,63.00
2023-02-11T14:22:30.265Z,59.30
2023-02-11T14:25:00.882Z,53.77
2023-02-11T14:27:33.058Z,56.97
2023-02-11T14:30:21.390Z,57.67
2023-02-11T14:33:10.236Z,54.63
2023-02-11T14:35:49.071Z,56.80
2023-02-11T14:38:25.187Z,54.40
2023-02-11T14:40:59.698Z,52.37
2023-02-11T14:43:32.228Z,54.10
2023-02-11T14:46:03.904Z,50.60
2023-02-11T14:48:35.365Z,63.10
2023-02-11T14:51:07.735Z,62.37
2023-02-11T14:53:37.544Z,63.13
2023-02-11T14:56:19.493Z,51.27
2023-02-11T14:58:48.471Z,51.63
2023-02-11T15:01:31.982Z,49.37
2023-02-11T15:04:01.286Z,55.00
2023-02-11T15:06:32.773Z,54.80
2023-02-11T15:09:03.802Z,54.97
2023-02-11T15:11:35.013Z,52.07
2023-02-11T15:14:10.812Z,49.17
2023-02-11T15:16:45.947Z,63.27
2023-02-11T15:19:22.526Z,53.30
2023-02-11T15:21:51.939Z,50.93
2023-02-11T15:24:25.536Z,51.93
2023-02-11T15:27:01.901Z,56.40
2023-02-11T15:29:38.045Z,60.03
2023-02-11T15:32:14.763Z,55.83
2023-02-11T15:34:42.881Z,54.60
2023-02-11T15:37:14.305Z,53.20
2023-02-11T15:39:43.263Z,56.70
2023-02-11T15:42:19.286Z,55.93
2023-02-11T15:44:56.398Z,58.63
2023-02-11T15:47:26.298Z,55.30
2023-02-11T15:49:56.831Z,59.27
2023-02-11T15:52:27.499Z,60.30
2023-02-11T15:54:59.538Z,54.87
2023-02-11T15:57:27.744Z,58.83
2023-02-11T15:59:56.791Z,58.07
2023-02-11T16:02:32.488Z,52.23
2023-02-11T16:05:03.480Z,54.70
2023-02-11T16:07:43.464Z,54.77
2023-02-11T16:10:23.304Z,54.67
2023-02-11T16:12:57.323Z,54.33
2023-02-11T16:15:43.432Z,56.53
2023-02-11T16:18:37.890Z,47.07
2023-02-11T16:21:13.517Z,58.33
2023-02-11T16:23:43.220Z,56.57
2023-02-11T16:26:21.724Z,56.20
2023-02-11T16:28:50.218Z,53.63
2023-02-11T16:31:18.577Z,56.33
2023-02-11T16:33:48.171Z,51.03
2023-02-11T16:36:18.237Z,55.77
2023-02-11T16:38:46.319Z,58.43
2023-02-11T16:41:14.390Z,62.67
2023-02-11T16:43:42.211Z,55.97
2023-02-11T16:46:15.347Z,55.77
2023-02-11T16:48:43.505Z,54.83
2023-02-11T16:51:13.673Z,61.80
2023-02-11T16:53:41.741Z,59.00
2023-02-11T16:56:15.409Z,59.57
2023-02-11T16:58:43.468Z,54.60
2023-02-11T17:01:14.100Z,60.73
2023-02-11T17:03:43.636Z,53.97
2023-02-11T17:06:15.118Z,59.07
2023-02-11T17:08:43.053Z,60.60
2023-02-11T17:11:11.055Z,55.90
2023-02-11T17:13:39.553Z,55.33
2023-02-11T17:16:12.382Z,56.27
2023-02-11T17:18:40.316Z,62.63
2023-02-11T17:21:08.764Z,55.40
2023-02-11T17:23:38.678Z,52.80
2023-02-11T17:26:07.638Z,58.27
2023-02-11T17:28:35.873Z,60.43
2023-02-11T17:31:08.842Z,57.47
2023-02-11T17:33:37.818Z,54.67
2023-02-11T17:36:07.719Z,58.20
2023-02-11T17:38:35.804Z,61.50
2023-02-11T17:41:06.120Z,61.53
2023-02-11T17:43:34.073Z,59.27
2023-02-11T17:46:02.087Z,53.77
2023-02-11T17:48:30.007Z,62.63
2023-02-11T17:50:57.926Z,62.27
2023-02-11T17:53:25.792Z,55.30
2023-02-11T17:55:55.971Z,56.47
2023-02-11T17:58:25.409Z,59.27
2023-02-11T18:00:53.342Z,61.37
2023-02-11T18:03:21.277Z,57.33
2023-02-11T18:05:49.680Z,62.07
2023-02-11T18:08:17.859Z,57.70
2023-02-11T18:10:46.269Z,63.13
2023-02-11T18:13:14.285Z,65.20
2023-02-11T18:15:44.016Z,61.57
2023-02-11T18:18:11.983Z,59.73
2023-02-11T18:20:40.627Z,56.93
2023-02-11T18:23:08.637Z,57.30
2023-02-11T18:25:36.578Z,54.97
2023-02-11T18:28:04.670Z,64.93
2023-02-11T18:30:35.749Z,58.73
2023-02-11T18:33:08.817Z,58.27
2023-02-11T18:35:38.768Z,57.30
2023-02-11T18:38:06.680Z,62.07
2023-02-11T18:40:35.465Z,61.87
2023-02-11T18:43:03.408Z,56.87
2023-02-11T18:45:31.459Z,63.30
2023-02-11T18:48:01.571Z,63.47
2023-02-11T18:50:31.024Z,63.40
2023-02-11T18:52:59.120Z,60.27
2023-02-11T18:55:27.260Z,62.10
2023-02-11T18:57:55.245Z,58.23
2023-02-11T19:00:23.746Z,60.53
2023-02-11T19:02:53.004Z,59.23
2023-02-11T19:05:21.592Z,65.73
2023-02-11T19:07:50.988Z,62.43
2023-02-11T19:10:19.156Z,68.90
2023-02-11T19:12:47.047Z,65.43
2023-02-11T19:15:16.071Z,64.97
2023-02-11T19:17:44.237Z,63.13
2023-02-11T19:20:12.488Z,64.97
2023-02-11T19:22:40.462Z,65.17
2023-02-11T19:25:11.019Z,69.83
2023-02-11T19:27:41.883Z,97.33
2023-02-11T19:30:11.240Z,73.60
2023-02-11T19:32:39.086Z,63.53
2023-02-11T19:35:07.744Z,67.20
2023-02-11T19:37:35.767Z,62.70
2023-02-11T19:40:03.683Z,73.93
2023-02-11T19:42:32.942Z,74.03
2023-02-11T19:45:00.848Z,68.40
2023-02-11T19:47:28.724Z,68.40
2023-02-11T19:49:56.949Z,66.83
2023-02-11T19:52:24.834Z,66.67
2023-02-11T19:54:53.037Z,70.60
2023-02-11T19:57:21.053Z,69.90
2023-02-11T19:59:50.944Z,74.27
2023-02-11T20:02:18.848Z,66.87
2023-02-11T20:04:46.988Z,72.23
2023-02-11T20:07:14.884Z,65.07
2023-02-11T20:09:43.066Z,70.87
2023-02-11T20:12:12.067Z,68.43
2023-02-11T20:14:39.959Z,65.07
2023-02-11T20:17:09.646Z,63.53
2023-02-11T20:19:37.627Z,63.40
2023-02-11T20:22:05.570Z,64.70
2023-02-11T20:24:33.514Z,63.20
2023-02-11T20:27:01.369Z,73.40
2023-02-11T20:29:31.157Z,67.87
2023-02-11T20:31:59.318Z,66.87
2023-02-11T20:34:29.467Z,75.50
2023-02-11T20:36:57.409Z,65.20
2023-02-11T20:39:26.965Z,70.90
2023-02-11T20:41:56.534Z,68.37
2023-02-11T20:44:24.689Z,72.97
2023-02-11T20:46:54.057Z,68.87
2023-02-11T20:49:25.203Z,68.53
2023-02-11T20:51:55.674Z,76.83
2023-02-11T20:54:24.929Z,72.47
2023-02-11T20:56:53.890Z,69.60
2023-02-11T20:59:23.697Z,70.00
2023-02-11T21:01:55.392Z,68.73
2023-02-11T21:04:26.175Z,69.07
2023-02-11T21:06:58.600Z,64.57
2023-02-11T21:09:28.367Z,68.10
2023-02-11T21:11:56.942Z,69.47
2023-02-11T21:14:26.425Z,71.80
2023-02-11T21:16:54.287Z,63.50
2023-02-11T21:19:22.462Z,69.60
2023-02-11T21:21:50.467Z,70.63
2023-02-11T21:24:19.839Z,72.53
2023-02-11T21:26:47.747Z,73.97
2023-02-11T21:29:15.816Z,71.40
2023-02-11T21:31:43.821Z,70.03
2023-02-11T21:34:12.045Z,68.77
2023-02-11T21:36:40.267Z,65.50
2023-02-11T21:39:08.984Z,68.73
2023-02-11T21:41:38.287Z,72.73
2023-02-11T21:44:06.399Z,68.53
2023-02-11T21:46:34.232Z,78.70
2023-02-11T21:49:02.119Z,70.93
2023-02-11T21:51:30.509Z,66.00
2023-02-11T21:54:01.159Z,63.67
2023-02-11T21:56:30.178Z,72.83
2023-02-11T21:59:01.096Z,68.37
2023-02-11T22:01:31.878Z,67.53
2023-02-11T22:04:00.241Z,66.40
2023-02-11T22:06:31.324Z,69.67
2023-02-11T22:09:00.263Z,67.77
2023-02-11T22:11:28.183Z,66.10
2023-02-11T22:13:57.975Z,67.57
2023-02-11T22:16:28.499Z,66.80
2023-02-11T22:18:58.640Z,66.67
2023-02-11T22:21:27.390Z,67.33
2023-02-11T22:23:56.053Z,70.40
2023-02-11T22:26:25.619Z,67.60
2023-02-11T22:28:54.913Z,65.10
2023-02-11T22:31:25.145Z,67.60
2023-02-11T22:33:54.572Z,65.73
2023-02-11T22:36:24.337Z,69.20
2023-02-11T22:38:53.052Z,70.07
2023-02-11T22:41:21.664Z,66.50
2023-02-11T22:43:49.872Z,66.00
2023-02-11T22:46:20.102Z,67.17
2023-02-11T22:48:48.870Z,69.50
2023-02-11T22:51:20.450Z,66.40
2023-02-11T22:53:53.139Z,69.00
2023-02-11T22:56:22.082Z,60.87
2023-02-11T22:58:50.745Z,66.57
2023-02-11T23:01:19.053Z,66.20
2023-02-11T23:03:47.210Z,67.30
2023-02-11T23:06:15.647Z,63.13
2023-02-11T23:08:45.451Z,69.03
2023-02-11T23:11:15.982Z,59.93
2023-02-11T23:13:45.060Z,66.93
2023-02-11T23:16:15.714Z,64.63
2023-02-11T23:18:45.063Z,60.27
2023-02-11T23:21:16.903Z,66.67
2023-02-11T23:23:46.898Z,63.83
2023-02-11T23:26:17.529Z,62.87
2023-02-11T23:28:46.256Z,63.97
2023-02-11T23:31:19.452Z,64.10
2023-02-11T23:33:48.417Z,63.73
2023-02-11T23:36:17.218Z,60.67
2023-02-11T23:38:46.799Z,65.17
2023-02-11T23:41:15.249Z,67.90
2023-02-11T23:43:43.691Z,65.33
2023-02-11T23:46:12.188Z,63.57
2023-02-11T23:48:40.515Z,65.60
2023-02-11T23:51:09.712Z,63.40
2023-02-11T23:53:38.127Z,61.33
2023-02-11T23:56:10.373Z,61.37
2023-02-11T23:58:38.355Z,65.07
